Fessenden, North Dakota
Current Conditions -  °F | °C
As of 12:15 AM on Thursday 23 Oct 2014 (Local Time) from K5H4 Reporting Station
Overcast Overcast  
Wind Chill: 52°   Ceiling: 7000
Heat Index: 52°   Visibility: 10mi
Dew Point: 43°   Wind: 7mph
Humidity: 71%   Direction: 230°SW
Pressure: 29.86"   Gusts: NA
Location:  47.65°N, 99.63°W
Report Text: K5H4 230515Z AUTO 23006KT 10SM OVC070 11/06 A2986 RMK AO2
Loading
Personal Weather Stations






























Interactive Weather Map
Tropical Storm Tracking
New forecast layout! Learn more

10-Day Weather Forecast

Advertisements
Track Severe Weather on mobile